Time,TemperatureF,DewpointF,PressureIn,WindDirection,WindDirectionDegrees,WindSpeedMPH,WindSpeedGustMPH,Humidity,HourlyPrecipIn,Conditions,Clouds,dailyrainin,SolarRadiationWatts/m^2,SoftwareType,DateUTC
2013-08-21 00:00:00,71.0,37.0,-100.00,WNW,292,9.0,15.0,29,0.00,,,0.00,0.000000,,2013-08-21 07:00:00,
2013-08-21 00:42:00,71.0,37.0,-100.00,WNW,292,9.0,15.0,29,0.00,,,0.00,0.000000,,2013-08-21 07:42:00,
2013-08-21 00:53:00,71.0,37.0,-100.00,WNW,292,9.0,15.0,29,0.00,,,0.00,0.000000,,2013-08-21 07:53:00,
2013-08-21 01:00:00,70.0,37.0,-100.00,WNW,293,10.0,14.0,30,0.00,,,-99.99,0.000000,,2013-08-21 08:00:00,
2013-08-21 01:22:00,70.0,37.0,-100.00,WNW,293,10.0,14.0,30,0.00,,,-99.99,0.000000,,2013-08-21 08:22:00,
2013-08-21 01:32:00,70.0,37.0,-100.00,WNW,293,10.0,14.0,30,0.00,,,-99.99,0.000000,,2013-08-21 08:32:00,
2013-08-21 01:52:00,70.0,37.0,-100.00,WNW,293,10.0,14.0,30,0.00,,,-99.99,0.000000,,2013-08-21 08:52:00,
2013-08-21 02:00:00,72.0,37.0,-100.00,WNW,290,9.0,16.0,28,0.00,,,0.00,0.000000,,2013-08-21 09:00:00,
2013-08-21 02:43:00,72.0,37.0,-100.00,WNW,290,9.0,16.0,28,0.00,,,0.00,0.000000,,2013-08-21 09:43:00,
2013-08-21 02:53:00,72.0,37.0,-100.00,WNW,290,9.0,16.0,28,0.00,,,0.00,0.000000,,2013-08-21 09:53:00,
2013-08-21 03:00:00,72.0,37.0,-100.00,WNW,287,7.0,15.0,28,0.00,,,0.00,0.000000,,2013-08-21 10:00:00,
2013-08-21 03:43:00,72.0,37.0,-100.00,WNW,287,7.0,15.0,28,0.00,,,0.00,0.000000,,2013-08-21 10:43:00,
2013-08-21 03:52:00,72.0,37.0,-100.00,WNW,287,7.0,15.0,28,0.00,,,0.00,0.000000,,2013-08-21 10:52:00,
2013-08-21 04:00:00,72.0,39.0,-100.00,WNW,286,7.0,14.0,30,0.00,,,0.00,0.000000,,2013-08-21 11:00:00,
2013-08-21 04:42:00,72.0,39.0,-100.00,WNW,286,7.0,14.0,30,0.00,,,0.00,0.000000,,2013-08-21 11:42:00,
2013-08-21 04:52:00,72.0,39.0,-100.00,WNW,286,7.0,14.0,30,0.00,,,0.00,0.000000,,2013-08-21 11:52:00,
2013-08-21 05:00:00,72.0,38.0,-100.00,WNW,287,9.0,15.0,29,0.00,,,0.00,0.000000,,2013-08-21 12:00:00,
2013-08-21 05:42:00,72.0,38.0,-100.00,WNW,287,9.0,15.0,29,0.00,,,0.00,0.000000,,2013-08-21 12:42:00,
2013-08-21 05:52:00,72.0,38.0,-100.00,WNW,287,9.0,15.0,29,0.00,,,0.00,0.000000,,2013-08-21 12:52:00,
2013-08-21 06:42:00,70.0,39.0,-100.00,WNW,288,8.0,15.0,32,0.00,,,0.00,0.000000,,2013-08-21 13:42:00,
2013-08-21 07:00:00,70.0,41.0,-100.00,WNW,293,8.0,13.0,35,0.00,,,0.00,0.000000,,2013-08-21 14:00:00,
2013-08-21 07:22:00,70.0,41.0,-100.00,WNW,293,8.0,13.0,35,0.00,,,0.00,0.000000,,2013-08-21 14:22:00,
2013-08-21 07:32:00,70.0,41.0,-100.00,WNW,293,8.0,13.0,35,0.00,,,0.00,0.000000,,2013-08-21 14:32:00,
2013-08-21 07:42:00,70.0,41.0,-100.00,WNW,293,8.0,13.0,35,0.00,,,0.00,0.000000,,2013-08-21 14:42:00,
2013-08-21 07:52:00,70.0,41.0,-100.00,WNW,293,8.0,13.0,35,0.00,,,0.00,0.000000,,2013-08-21 14:52:00,
2013-08-21 10:00:00,85.0,44.0,-100.00,SE,135,2.0,7.0,24,0.00,,,0.00,534.000000,,2013-08-21 17:00:00,
2013-08-21 10:23:00,85.0,44.0,-100.00,SE,135,2.0,7.0,24,0.00,,,0.00,534.000000,,2013-08-21 17:23:00,
2013-08-21 10:34:00,85.0,44.0,-100.00,SE,135,2.0,7.0,24,0.00,,,0.00,534.000000,,2013-08-21 17:34:00,
2013-08-21 10:43:00,85.0,44.0,-100.00,SE,135,2.0,7.0,24,0.00,,,0.00,534.000000,,2013-08-21 17:43:00,
2013-08-21 10:53:00,85.0,44.0,-100.00,SE,135,2.0,7.0,24,0.00,,,0.00,534.000000,,2013-08-21 17:53:00,
2013-08-21 11:00:00,90.0,41.0,-100.00,SE,126,4.0,7.0,18,0.00,,,0.00,792.000000,,2013-08-21 18:00:00,
2013-08-21 11:42:00,90.0,41.0,-100.00,SE,126,4.0,7.0,18,0.00,,,0.00,792.000000,,2013-08-21 18:42:00,
2013-08-21 11:52:00,90.0,41.0,-100.00,SE,126,4.0,7.0,18,0.00,,,0.00,792.000000,,2013-08-21 18:52:00,
2013-08-21 12:00:00,91.0,39.0,-100.00,ESE,122,5.0,14.0,16,0.00,,,0.00,1024.000000,,2013-08-21 19:00:00,
2013-08-21 12:42:00,91.0,39.0,-100.00,ESE,122,5.0,14.0,16,0.00,,,0.00,1024.000000,,2013-08-21 19:42:00,
2013-08-21 12:52:00,91.0,39.0,-100.00,ESE,122,5.0,14.0,16,0.00,,,0.00,1024.000000,,2013-08-21 19:52:00,
2013-08-21 13:00:00,94.0,39.0,-100.00,East,98,7.0,11.0,15,0.00,,,0.00,1067.000000,,2013-08-21 20:00:00,
2013-08-21 13:22:00,94.0,39.0,-100.00,East,98,7.0,11.0,15,0.00,,,0.00,1067.000000,,2013-08-21 20:22:00,
2013-08-21 13:32:00,94.0,39.0,-100.00,East,98,7.0,11.0,15,0.00,,,0.00,1067.000000,,2013-08-21 20:32:00,
2013-08-21 13:42:00,94.0,39.0,-100.00,East,98,7.0,11.0,15,0.00,,,0.00,1067.000000,,2013-08-21 20:42:00,
2013-08-21 13:52:00,94.0,39.0,-100.00,East,98,7.0,11.0,15,0.00,,,0.00,1067.000000,,2013-08-21 20:52:00,
2013-08-21 14:00:00,96.0,39.0,-100.00,ESE,107,7.0,16.0,14,0.00,,,0.00,1380.000000,,2013-08-21 21:00:00,
2013-08-21 14:44:00,96.0,39.0,-100.00,ESE,107,7.0,16.0,14,0.00,,,0.00,1380.000000,,2013-08-21 21:44:00,
2013-08-21 14:54:00,96.0,39.0,-100.00,ESE,107,7.0,16.0,14,0.00,,,0.00,1380.000000,,2013-08-21 21:54:00,
2013-08-21 15:00:00,97.0,38.0,-100.00,East,94,11.0,17.0,13,0.00,,,0.00,1286.000000,,2013-08-21 22:00:00,
2013-08-21 15:24:00,97.0,38.0,-100.00,East,94,11.0,17.0,13,0.00,,,0.00,1286.000000,,2013-08-21 22:24:00,
2013-08-21 15:34:00,97.0,38.0,-100.00,East,94,11.0,17.0,13,0.00,,,0.00,1286.000000,,2013-08-21 22:34:00,
2013-08-21 15:44:00,97.0,38.0,-100.00,East,94,11.0,17.0,13,0.00,,,0.00,1286.000000,,2013-08-21 22:44:00,
2013-08-21 15:53:00,97.0,38.0,-100.00,East,94,11.0,17.0,13,0.00,,,0.00,1286.000000,,2013-08-21 22:53:00,
2013-08-21 16:00:00,96.0,43.0,-100.00,SW,217,5.0,20.0,16,0.00,,,0.00,1110.000000,,2013-08-21 23:00:00,
2013-08-21 16:43:00,96.0,43.0,-100.00,SW,217,5.0,20.0,16,0.00,,,0.00,1110.000000,,2013-08-21 23:43:00,
2013-08-21 16:53:00,96.0,43.0,-100.00,SW,217,5.0,20.0,16,0.00,,,0.00,1110.000000,,2013-08-21 23:53:00,
2013-08-21 17:00:00,96.0,43.0,-100.00,West,263,10.0,18.0,16,0.00,,,-99.99,888.000000,,2013-08-22 00:00:00,
2013-08-21 17:22:00,96.0,43.0,-100.00,West,263,10.0,18.0,16,0.00,,,-99.99,888.000000,,2013-08-22 00:22:00,
2013-08-21 17:32:00,96.0,43.0,-100.00,West,263,10.0,18.0,16,0.00,,,-99.99,888.000000,,2013-08-22 00:32:00,
2013-08-21 17:42:00,96.0,43.0,-100.00,West,263,10.0,18.0,16,0.00,,,-99.99,888.000000,,2013-08-22 00:42:00,
2013-08-21 17:52:00,96.0,43.0,-100.00,West,263,10.0,18.0,16,0.00,,,-99.99,888.000000,,2013-08-22 00:52:00,
2013-08-21 18:00:00,94.0,41.0,-100.00,West,273,8.0,20.0,16,0.00,,,0.00,778.000000,,2013-08-22 01:00:00,
2013-08-21 18:42:00,94.0,41.0,-100.00,West,273,8.0,20.0,16,0.00,,,0.00,778.000000,,2013-08-22 01:42:00,
2013-08-21 18:52:00,94.0,41.0,-100.00,West,273,8.0,20.0,16,0.00,,,0.00,778.000000,,2013-08-22 01:52:00,
2013-08-21 19:00:00,91.0,40.0,-100.00,West,272,8.0,16.0,17,0.00,,,0.00,515.000000,,2013-08-22 02:00:00,
2013-08-21 19:52:00,91.0,40.0,-100.00,West,272,8.0,16.0,17,0.00,,,0.00,515.000000,,2013-08-22 02:52:00,
2013-08-21 20:00:00,85.0,43.0,-100.00,West,262,7.0,18.0,23,0.00,,,0.00,97.000000,,2013-08-22 03:00:00,
2013-08-21 20:22:00,85.0,43.0,-100.00,West,262,7.0,18.0,23,0.00,,,0.00,97.000000,,2013-08-22 03:22:00,
2013-08-21 20:35:00,85.0,43.0,-100.00,West,262,7.0,18.0,23,0.00,,,0.00,97.000000,,2013-08-22 03:35:00,
2013-08-21 20:45:00,85.0,43.0,-100.00,West,262,7.0,18.0,23,0.00,,,0.00,97.000000,,2013-08-22 03:45:00,
2013-08-21 20:54:00,85.0,43.0,-100.00,West,262,7.0,18.0,23,0.00,,,0.00,97.000000,,2013-08-22 03:54:00,
2013-08-21 21:00:00,80.0,42.0,-100.00,West,262,7.0,13.0,26,0.00,,,-99.99,8.000000,,2013-08-22 04:00:00,
2013-08-21 21:24:00,80.0,42.0,-100.00,West,262,7.0,13.0,26,0.00,,,-99.99,8.000000,,2013-08-22 04:24:00,
2013-08-21 21:34:00,80.0,42.0,-100.00,West,262,7.0,13.0,26,0.00,,,-99.99,8.000000,,2013-08-22 04:34:00,
2013-08-21 21:44:00,80.0,42.0,-100.00,West,262,7.0,13.0,26,0.00,,,-99.99,8.000000,,2013-08-22 04:44:00,
2013-08-21 21:54:00,80.0,42.0,-100.00,West,262,7.0,13.0,26,0.00,,,-99.99,8.000000,,2013-08-22 04:54:00,
2013-08-21 22:00:00,78.0,39.0,-100.00,WNW,297,5.0,11.0,25,0.00,,,0.00,0.000000,,2013-08-22 05:00:00,
2013-08-21 22:23:00,78.0,39.0,-100.00,WNW,297,5.0,11.0,25,0.00,,,0.00,0.000000,,2013-08-22 05:23:00,
2013-08-21 22:34:00,78.0,39.0,-100.00,WNW,297,5.0,11.0,25,0.00,,,0.00,0.000000,,2013-08-22 05:34:00,
2013-08-21 22:43:00,78.0,39.0,-100.00,WNW,297,5.0,11.0,25,0.00,,,0.00,0.000000,,2013-08-22 05:43:00,
2013-08-21 22:52:00,78.0,39.0,-100.00,WNW,297,5.0,11.0,25,0.00,,,0.00,0.000000,,2013-08-22 05:52:00,
2013-08-21 23:00:00,76.0,41.0,-100.00,WNW,300,8.0,11.0,29,0.00,,,0.00,0.000000,,2013-08-22 06:00:00,
2013-08-21 23:42:00,76.0,41.0,-100.00,WNW,300,8.0,11.0,29,0.00,,,0.00,0.000000,,2013-08-22 06:42:00,
2013-08-21 23:52:00,76.0,41.0,-100.00,WNW,300,8.0,11.0,29,0.00,,,0.00,0.000000,,2013-08-22 06:52:00,